sensor_id;sensor_type;location;lat;lon;timestamp;P1;durP1;ratioP1;P2;durP2;ratioP2
62258;SDS011;48241;48.824;10.102;2023-06-10T00:00:54;5.63;;;4.45;;
62258;SDS011;48241;48.824;10.102;2023-06-10T00:03:20;5.18;;;4.78;;
62258;SDS011;48241;48.824;10.102;2023-06-10T00:05:49;4.93;;;4.47;;
62258;SDS011;48241;48.824;10.102;2023-06-10T00:08:14;4.43;;;4.03;;
62258;SDS011;48241;48.824;10.102;2023-06-10T00:10:40;5.20;;;4.70;;
62258;SDS011;48241;48.824;10.102;2023-06-10T00:13:06;4.57;;;4.13;;
62258;SDS011;48241;48.824;10.102;2023-06-10T00:15:36;5.20;;;4.70;;
62258;SDS011;48241;48.824;10.102;2023-06-10T00:18:02;4.60;;;4.20;;
62258;SDS011;48241;48.824;10.102;2023-06-10T00:20:29;5.55;;;4.88;;
62258;SDS011;48241;48.824;10.102;2023-06-10T00:22:55;4.68;;;4.25;;
62258;SDS011;48241;48.824;10.102;2023-06-10T00:25:23;6.03;;;4.63;;
62258;SDS011;48241;48.824;10.102;2023-06-10T00:27:50;4.78;;;4.38;;
62258;SDS011;48241;48.824;10.102;2023-06-10T00:30:16;4.70;;;4.30;;
62258;SDS011;48241;48.824;10.102;2023-06-10T00:32:42;5.22;;;4.70;;
62258;SDS011;48241;48.824;10.102;2023-06-10T00:35:07;4.53;;;4.05;;
62258;SDS011;48241;48.824;10.102;2023-06-10T00:37:33;5.43;;;4.30;;
62258;SDS011;48241;48.824;10.102;2023-06-10T00:40:00;5.15;;;4.15;;
62258;SDS011;48241;48.824;10.102;2023-06-10T00:42:27;6.88;;;4.30;;
62258;SDS011;48241;48.824;10.102;2023-06-10T00:44:54;6.28;;;4.43;;
62258;SDS011;48241;48.824;10.102;2023-06-10T00:47:20;5.40;;;4.18;;
62258;SDS011;48241;48.824;10.102;2023-06-10T00:49:46;4.57;;;4.10;;
62258;SDS011;48241;48.824;10.102;2023-06-10T00:52:13;5.00;;;3.95;;
62258;SDS011;48241;48.824;10.102;2023-06-10T00:54:39;4.32;;;3.80;;
62258;SDS011;48241;48.824;10.102;2023-06-10T00:57:05;4.32;;;3.92;;
62258;SDS011;48241;48.824;10.102;2023-06-10T00:59:31;5.13;;;3.92;;
62258;SDS011;48241;48.824;10.102;2023-06-10T01:01:57;4.45;;;4.05;;
62258;SDS011;48241;48.824;10.102;2023-06-10T01:04:23;4.30;;;3.90;;
62258;SDS011;48241;48.824;10.102;2023-06-10T01:09:48;4.65;;;4.13;;
62258;SDS011;48241;48.824;10.102;2023-06-10T01:12:23;4.40;;;4.00;;
62258;SDS011;48241;48.824;10.102;2023-06-10T01:14:52;4.25;;;3.85;;
62258;SDS011;48241;48.824;10.102;2023-06-10T01:17:18;4.47;;;4.07;;
62258;SDS011;48241;48.824;10.102;2023-06-10T01:19:44;4.90;;;4.40;;
62258;SDS011;48241;48.824;10.102;2023-06-10T01:22:20;4.50;;;4.10;;
62258;SDS011;48241;48.824;10.102;2023-06-10T01:24:45;5.25;;;4.60;;
62258;SDS011;48241;48.824;10.102;2023-06-10T01:27:15;5.28;;;4.65;;
62258;SDS011;48241;48.824;10.102;2023-06-10T01:29:50;5.35;;;4.85;;
62258;SDS011;48241;48.824;10.102;2023-06-10T01:32:23;4.45;;;3.97;;
62258;SDS011;48241;48.824;10.102;2023-06-10T01:34:51;5.20;;;4.28;;
62258;SDS011;48241;48.824;10.102;2023-06-10T01:37:19;4.43;;;4.03;;
62258;SDS011;48241;48.824;10.102;2023-06-10T01:39:48;5.95;;;4.10;;
62258;SDS011;48241;48.824;10.102;2023-06-10T01:42:14;4.60;;;4.15;;
62258;SDS011;48241;48.824;10.102;2023-06-10T01:44:40;4.88;;;4.40;;
62258;SDS011;48241;48.824;10.102;2023-06-10T01:47:06;4.75;;;4.35;;
62258;SDS011;48241;48.824;10.102;2023-06-10T01:49:32;4.93;;;4.43;;
62258;SDS011;48241;48.824;10.102;2023-06-10T01:51:58;5.68;;;5.07;;
62258;SDS011;48241;48.824;10.102;2023-06-10T01:54:24;5.55;;;4.68;;
62258;SDS011;48241;48.824;10.102;2023-06-10T01:56:49;5.57;;;5.00;;
62258;SDS011;48241;48.824;10.102;2023-06-10T01:59:15;5.82;;;5.22;;
62258;SDS011;48241;48.824;10.102;2023-06-10T02:01:40;5.40;;;4.90;;
62258;SDS011;48241;48.824;10.102;2023-06-10T02:04:06;5.05;;;4.60;;
62258;SDS011;48241;48.824;10.102;2023-06-10T02:06:31;5.70;;;5.20;;
62258;SDS011;48241;48.824;10.102;2023-06-10T02:08:57;5.13;;;4.63;;
62258;SDS011;48241;48.824;10.102;2023-06-10T02:11:23;6.68;;;4.70;;
62258;SDS011;48241;48.824;10.102;2023-06-10T02:13:48;5.80;;;5.20;;
62258;SDS011;48241;48.824;10.102;2023-06-10T02:16:14;5.57;;;5.05;;
62258;SDS011;48241;48.824;10.102;2023-06-10T02:18:41;6.72;;;5.30;;
62258;SDS011;48241;48.824;10.102;2023-06-10T02:21:08;5.57;;;5.07;;
62258;SDS011;48241;48.824;10.102;2023-06-10T02:23:34;5.43;;;4.90;;
62258;SDS011;48241;48.824;10.102;2023-06-10T02:26:00;5.30;;;4.80;;
62258;SDS011;48241;48.824;10.102;2023-06-10T02:28:25;6.03;;;5.43;;
62258;SDS011;48241;48.824;10.102;2023-06-10T02:30:51;6.03;;;5.22;;
62258;SDS011;48241;48.824;10.102;2023-06-10T02:33:17;6.13;;;5.53;;
62258;SDS011;48241;48.824;10.102;2023-06-10T02:35:42;6.07;;;5.30;;
62258;SDS011;48241;48.824;10.102;2023-06-10T02:38:08;5.82;;;5.32;;
62258;SDS011;48241;48.824;10.102;2023-06-10T02:40:34;6.50;;;5.50;;
62258;SDS011;48241;48.824;10.102;2023-06-10T02:42:59;7.22;;;5.38;;
62258;SDS011;48241;48.824;10.102;2023-06-10T02:45:25;6.10;;;5.47;;
62258;SDS011;48241;48.824;10.102;2023-06-10T02:47:50;8.20;;;6.18;;
62258;SDS011;48241;48.824;10.102;2023-06-10T02:50:16;5.75;;;5.25;;
62258;SDS011;48241;48.824;10.102;2023-06-10T02:52:41;5.85;;;5.25;;
62258;SDS011;48241;48.824;10.102;2023-06-10T02:55:07;7.00;;;6.00;;
62258;SDS011;48241;48.824;10.102;2023-06-10T02:57:33;6.93;;;6.22;;
62258;SDS011;48241;48.824;10.102;2023-06-10T02:59:58;5.75;;;5.25;;
62258;SDS011;48241;48.824;10.102;2023-06-10T03:02:24;6.10;;;5.50;;
62258;SDS011;48241;48.824;10.102;2023-06-10T03:04:54;6.32;;;5.70;;
62258;SDS011;48241;48.824;10.102;2023-06-10T03:07:23;6.25;;;5.65;;
62258;SDS011;48241;48.824;10.102;2023-06-10T03:09:48;7.82;;;6.05;;
62258;SDS011;48241;48.824;10.102;2023-06-10T03:12:15;6.95;;;6.25;;
62258;SDS011;48241;48.824;10.102;2023-06-10T03:14:41;7.35;;;6.00;;
62258;SDS011;48241;48.824;10.102;2023-06-10T03:17:06;6.75;;;6.15;;
62258;SDS011;48241;48.824;10.102;2023-06-10T03:19:33;6.60;;;5.90;;
62258;SDS011;48241;48.824;10.102;2023-06-10T03:22:12;7.20;;;6.45;;
62258;SDS011;48241;48.824;10.102;2023-06-10T03:24:39;6.88;;;6.20;;
62258;SDS011;48241;48.824;10.102;2023-06-10T03:27:06;7.18;;;6.47;;
62258;SDS011;48241;48.824;10.102;2023-06-10T03:29:32;6.78;;;6.07;;
62258;SDS011;48241;48.824;10.102;2023-06-10T03:31:58;6.40;;;5.80;;
62258;SDS011;48241;48.824;10.102;2023-06-10T03:34:23;6.68;;;6.07;;
62258;SDS011;48241;48.824;10.102;2023-06-10T03:36:49;6.28;;;5.65;;
62258;SDS011;48241;48.824;10.102;2023-06-10T03:39:15;6.75;;;6.05;;
62258;SDS011;48241;48.824;10.102;2023-06-10T03:41:41;6.47;;;5.68;;
62258;SDS011;48241;48.824;10.102;2023-06-10T03:44:06;6.82;;;5.57;;
62258;SDS011;48241;48.824;10.102;2023-06-10T03:46:32;6.18;;;5.45;;
62258;SDS011;48241;48.824;10.102;2023-06-10T03:48:57;6.30;;;5.70;;
62258;SDS011;48241;48.824;10.102;2023-06-10T03:51:25;6.75;;;6.03;;
62258;SDS011;48241;48.824;10.102;2023-06-10T03:53:51;6.88;;;5.95;;
62258;SDS011;48241;48.824;10.102;2023-06-10T03:56:16;7.28;;;6.13;;
62258;SDS011;48241;48.824;10.102;2023-06-10T03:58:42;8.15;;;6.00;;
62258;SDS011;48241;48.824;10.102;2023-06-10T04:01:07;6.70;;;6.00;;
62258;SDS011;48241;48.824;10.102;2023-06-10T04:03:33;6.03;;;5.43;;
62258;SDS011;48241;48.824;10.102;2023-06-10T04:05:59;6.43;;;5.82;;
62258;SDS011;48241;48.824;10.102;2023-06-10T04:08:25;6.97;;;6.18;;
62258;SDS011;48241;48.824;10.102;2023-06-10T04:10:50;6.57;;;5.65;;
62258;SDS011;48241;48.824;10.102;2023-06-10T04:13:16;6.60;;;5.90;;
62258;SDS011;48241;48.824;10.102;2023-06-10T04:15:42;5.88;;;5.32;;
62258;SDS011;48241;48.824;10.102;2023-06-10T04:18:07;5.90;;;5.40;;
62258;SDS011;48241;48.824;10.102;2023-06-10T04:20:33;5.90;;;5.30;;
62258;SDS011;48241;48.824;10.102;2023-06-10T04:22:59;5.35;;;4.85;;
62258;SDS011;48241;48.824;10.102;2023-06-10T04:25:24;5.10;;;4.70;;
62258;SDS011;48241;48.824;10.102;2023-06-10T04:27:51;4.78;;;4.28;;
62258;SDS011;48241;48.824;10.102;2023-06-10T04:30:16;4.28;;;3.53;;
62258;SDS011;48241;48.824;10.102;2023-06-10T04:32:43;4.90;;;4.40;;
62258;SDS011;48241;48.824;10.102;2023-06-10T04:35:11;4.20;;;3.80;;
62258;SDS011;48241;48.824;10.102;2023-06-10T04:37:36;3.80;;;3.50;;
62258;SDS011;48241;48.824;10.102;2023-06-10T04:40:02;3.55;;;3.25;;
62258;SDS011;48241;48.824;10.102;2023-06-10T04:42:28;3.50;;;3.20;;
62258;SDS011;48241;48.824;10.102;2023-06-10T04:44:53;3.85;;;3.28;;
62258;SDS011;48241;48.824;10.102;2023-06-10T04:47:19;3.17;;;2.97;;
62258;SDS011;48241;48.824;10.102;2023-06-10T04:49:45;3.30;;;3.10;;
62258;SDS011;48241;48.824;10.102;2023-06-10T04:52:10;3.00;;;2.80;;
62258;SDS011;48241;48.824;10.102;2023-06-10T04:54:36;3.55;;;3.25;;
62258;SDS011;48241;48.824;10.102;2023-06-10T04:57:01;3.20;;;2.90;;
62258;SDS011;48241;48.824;10.102;2023-06-10T04:59:27;3.42;;;3.00;;
62258;SDS011;48241;48.824;10.102;2023-06-10T05:01:54;3.42;;;3.00;;
62258;SDS011;48241;48.824;10.102;2023-06-10T05:04:20;3.60;;;3.30;;
62258;SDS011;48241;48.824;10.102;2023-06-10T05:06:45;3.13;;;2.92;;
62258;SDS011;48241;48.824;10.102;2023-06-10T05:09:11;3.28;;;2.90;;
62258;SDS011;48241;48.824;10.102;2023-06-10T05:11:36;3.90;;;2.90;;
62258;SDS011;48241;48.824;10.102;2023-06-10T05:14:02;3.08;;;2.83;;
62258;SDS011;48241;48.824;10.102;2023-06-10T05:16:27;3.45;;;3.15;;
62258;SDS011;48241;48.824;10.102;2023-06-10T05:18:53;3.30;;;3.10;;
62258;SDS011;48241;48.824;10.102;2023-06-10T05:21:18;3.63;;;3.20;;
62258;SDS011;48241;48.824;10.102;2023-06-10T05:23:45;3.30;;;3.10;;
62258;SDS011;48241;48.824;10.102;2023-06-10T05:26:10;3.08;;;2.85;;
62258;SDS011;48241;48.824;10.102;2023-06-10T05:28:36;3.20;;;2.90;;
62258;SDS011;48241;48.824;10.102;2023-06-10T05:31:02;3.97;;;3.28;;
62258;SDS011;48241;48.824;10.102;2023-06-10T05:33:27;3.65;;;3.35;;
62258;SDS011;48241;48.824;10.102;2023-06-10T05:35:53;2.83;;;2.63;;
62258;SDS011;48241;48.824;10.102;2023-06-10T05:38:19;3.10;;;2.90;;
62258;SDS011;48241;48.824;10.102;2023-06-10T05:40:45;3.33;;;3.03;;
62258;SDS011;48241;48.824;10.102;2023-06-10T05:43:11;3.10;;;2.85;;
62258;SDS011;48241;48.824;10.102;2023-06-10T05:45:37;3.38;;;3.08;;
62258;SDS011;48241;48.824;10.102;2023-06-10T05:48:02;3.55;;;3.25;;
62258;SDS011;48241;48.824;10.102;2023-06-10T05:50:28;3.20;;;3.00;;
62258;SDS011;48241;48.824;10.102;2023-06-10T05:52:54;4.10;;;3.70;;
62258;SDS011;48241;48.824;10.102;2023-06-10T05:55:20;4.13;;;3.50;;
62258;SDS011;48241;48.824;10.102;2023-06-10T05:57:45;4.05;;;3.75;;
62258;SDS011;48241;48.824;10.102;2023-06-10T06:00:11;4.03;;;3.63;;
62258;SDS011;48241;48.824;10.102;2023-06-10T06:02:37;3.90;;;3.60;;
62258;SDS011;48241;48.824;10.102;2023-06-10T06:05:03;3.60;;;3.30;;
62258;SDS011;48241;48.824;10.102;2023-06-10T06:07:29;3.70;;;3.40;;
62258;SDS011;48241;48.824;10.102;2023-06-10T06:09:54;3.70;;;3.40;;
62258;SDS011;48241;48.824;10.102;2023-06-10T06:12:20;3.85;;;3.55;;
62258;SDS011;48241;48.824;10.102;2023-06-10T06:14:45;3.85;;;3.50;;
62258;SDS011;48241;48.824;10.102;2023-06-10T06:17:11;4.05;;;3.65;;
62258;SDS011;48241;48.824;10.102;2023-06-10T06:19:37;3.90;;;3.60;;
62258;SDS011;48241;48.824;10.102;2023-06-10T06:22:03;4.13;;;3.38;;
62258;SDS011;48241;48.824;10.102;2023-06-10T06:24:28;3.92;;;3.42;;
62258;SDS011;48241;48.824;10.102;2023-06-10T06:26:54;4.72;;;3.22;;
62258;SDS011;48241;48.824;10.102;2023-06-10T06:29:20;3.38;;;3.08;;
62258;SDS011;48241;48.824;10.102;2023-06-10T06:31:45;3.50;;;3.20;;
62258;SDS011;48241;48.824;10.102;2023-06-10T06:34:11;3.88;;;3.20;;
62258;SDS011;48241;48.824;10.102;2023-06-10T06:36:36;4.05;;;2.97;;
62258;SDS011;48241;48.824;10.102;2023-06-10T06:39:02;3.28;;;2.97;;
62258;SDS011;48241;48.824;10.102;2023-06-10T06:41:28;3.28;;;2.72;;
62258;SDS011;48241;48.824;10.102;2023-06-10T06:43:54;2.83;;;2.58;;
62258;SDS011;48241;48.824;10.102;2023-06-10T06:46:20;3.10;;;2.58;;
62258;SDS011;48241;48.824;10.102;2023-06-10T06:48:47;4.38;;;3.45;;
62258;SDS011;48241;48.824;10.102;2023-06-10T06:51:12;3.35;;;2.67;;
62258;SDS011;48241;48.824;10.102;2023-06-10T06:53:38;3.00;;;2.80;;
62258;SDS011;48241;48.824;10.102;2023-06-10T06:56:09;3.47;;;3.17;;
62258;SDS011;48241;48.824;10.102;2023-06-10T06:58:35;6.13;;;3.08;;
62258;SDS011;48241;48.824;10.102;2023-06-10T07:01:00;7.15;;;3.00;;
62258;SDS011;48241;48.824;10.102;2023-06-10T07:03:26;2.88;;;2.67;;
62258;SDS011;48241;48.824;10.102;2023-06-10T07:05:52;3.25;;;2.70;;
62258;SDS011;48241;48.824;10.102;2023-06-10T07:08:17;3.17;;;2.90;;
62258;SDS011;48241;48.824;10.102;2023-06-10T07:10:43;2.92;;;2.70;;
62258;SDS011;48241;48.824;10.102;2023-06-10T07:13:08;4.00;;;3.10;;
62258;SDS011;48241;48.824;10.102;2023-06-10T07:15:34;3.45;;;3.13;;
62258;SDS011;48241;48.824;10.102;2023-06-10T07:17:59;3.40;;;3.15;;
62258;SDS011;48241;48.824;10.102;2023-06-10T07:20:25;3.33;;;2.95;;
62258;SDS011;48241;48.824;10.102;2023-06-10T07:22:50;3.35;;;3.00;;
62258;SDS011;48241;48.824;10.102;2023-06-10T07:25:16;3.10;;;2.90;;
62258;SDS011;48241;48.824;10.102;2023-06-10T07:27:42;3.80;;;3.03;;
62258;SDS011;48241;48.824;10.102;2023-06-10T07:30:07;3.40;;;3.10;;
62258;SDS011;48241;48.824;10.102;2023-06-10T07:32:34;2.92;;;2.67;;
62258;SDS011;48241;48.824;10.102;2023-06-10T07:34:59;3.88;;;2.90;;
62258;SDS011;48241;48.824;10.102;2023-06-10T07:37:25;3.70;;;3.00;;
62258;SDS011;48241;48.824;10.102;2023-06-10T07:39:51;2.97;;;2.78;;
62258;SDS011;48241;48.824;10.102;2023-06-10T07:42:16;2.85;;;2.63;;
62258;SDS011;48241;48.824;10.102;2023-06-10T07:44:42;3.35;;;2.75;;
62258;SDS011;48241;48.824;10.102;2023-06-10T07:47:07;2.70;;;2.50;;
62258;SDS011;48241;48.824;10.102;2023-06-10T07:49:33;4.05;;;2.70;;
62258;SDS011;48241;48.824;10.102;2023-06-10T07:51:58;3.15;;;2.85;;
62258;SDS011;48241;48.824;10.102;2023-06-10T07:54:24;5.13;;;2.85;;
62258;SDS011;48241;48.824;10.102;2023-06-10T07:56:50;3.42;;;3.05;;
62258;SDS011;48241;48.824;10.102;2023-06-10T07:59:17;3.20;;;2.90;;
62258;SDS011;48241;48.824;10.102;2023-06-10T08:01:43;2.95;;;2.70;;
62258;SDS011;48241;48.824;10.102;2023-06-10T08:04:08;5.72;;;3.35;;
62258;SDS011;48241;48.824;10.102;2023-06-10T08:06:34;3.45;;;3.15;;
62258;SDS011;48241;48.824;10.102;2023-06-10T08:09:01;4.35;;;3.15;;
62258;SDS011;48241;48.824;10.102;2023-06-10T08:11:27;4.15;;;3.15;;
62258;SDS011;48241;48.824;10.102;2023-06-10T08:13:54;2.80;;;2.60;;
62258;SDS011;48241;48.824;10.102;2023-06-10T08:16:20;3.72;;;3.10;;
62258;SDS011;48241;48.824;10.102;2023-06-10T08:18:45;3.05;;;2.83;;
62258;SDS011;48241;48.824;10.102;2023-06-10T08:21:11;3.30;;;3.00;;
62258;SDS011;48241;48.824;10.102;2023-06-10T08:23:36;3.30;;;3.10;;
62258;SDS011;48241;48.824;10.102;2023-06-10T08:26:02;4.05;;;3.03;;
62258;SDS011;48241;48.824;10.102;2023-06-10T08:28:28;4.03;;;3.00;;
62258;SDS011;48241;48.824;10.102;2023-06-10T08:30:53;3.67;;;3.13;;
62258;SDS011;48241;48.824;10.102;2023-06-10T08:33:19;3.67;;;3.30;;
62258;SDS011;48241;48.824;10.102;2023-06-10T08:35:44;4.20;;;3.80;;
62258;SDS011;48241;48.824;10.102;2023-06-10T08:38:10;4.45;;;3.80;;
62258;SDS011;48241;48.824;10.102;2023-06-10T08:40:36;3.83;;;3.50;;
62258;SDS011;48241;48.824;10.102;2023-06-10T08:43:10;3.92;;;3.55;;
62258;SDS011;48241;48.824;10.102;2023-06-10T08:45:42;4.10;;;3.70;;
62258;SDS011;48241;48.824;10.102;2023-06-10T08:48:12;3.72;;;3.40;;
62258;SDS011;48241;48.824;10.102;2023-06-10T08:50:41;3.95;;;3.58;;
62258;SDS011;48241;48.824;10.102;2023-06-10T08:53:07;3.90;;;3.50;;
62258;SDS011;48241;48.824;10.102;2023-06-10T08:55:37;3.85;;;3.45;;
62258;SDS011;48241;48.824;10.102;2023-06-10T08:58:06;4.07;;;3.78;;
62258;SDS011;48241;48.824;10.102;2023-06-10T09:00:32;3.97;;;3.40;;
62258;SDS011;48241;48.824;10.102;2023-06-10T09:02:59;4.38;;;3.58;;
62258;SDS011;48241;48.824;10.102;2023-06-10T09:05:26;4.75;;;3.38;;
62258;SDS011;48241;48.824;10.102;2023-06-10T09:07:52;4.10;;;3.60;;
62258;SDS011;48241;48.824;10.102;2023-06-10T09:10:18;4.30;;;3.90;;
62258;SDS011;48241;48.824;10.102;2023-06-10T09:12:44;3.75;;;3.42;;
62258;SDS011;48241;48.824;10.102;2023-06-10T09:15:10;4.15;;;3.75;;
62258;SDS011;48241;48.824;10.102;2023-06-10T09:17:37;5.15;;;3.92;;
62258;SDS011;48241;48.824;10.102;2023-06-10T09:20:03;4.25;;;3.85;;
62258;SDS011;48241;48.824;10.102;2023-06-10T09:22:29;4.25;;;3.85;;
62258;SDS011;48241;48.824;10.102;2023-06-10T09:27:43;4.30;;;3.90;;
62258;SDS011;48241;48.824;10.102;2023-06-10T09:30:25;6.90;;;3.67;;
62258;SDS011;48241;48.824;10.102;2023-06-10T09:32:52;4.90;;;4.32;;
62258;SDS011;48241;48.824;10.102;2023-06-10T09:35:21;4.18;;;3.85;;
62258;SDS011;48241;48.824;10.102;2023-06-10T09:37:53;3.67;;;3.38;;
62258;SDS011;48241;48.824;10.102;2023-06-10T09:40:23;4.07;;;3.45;;
62258;SDS011;48241;48.824;10.102;2023-06-10T09:42:55;4.75;;;3.95;;
62258;SDS011;48241;48.824;10.102;2023-06-10T09:45:23;4.53;;;4.13;;
62258;SDS011;48241;48.824;10.102;2023-06-10T09:47:52;4.38;;;3.80;;
62258;SDS011;48241;48.824;10.102;2023-06-10T09:50:18;4.15;;;3.67;;
62258;SDS011;48241;48.824;10.102;2023-06-10T09:52:45;4.90;;;3.67;;
62258;SDS011;48241;48.824;10.102;2023-06-10T09:55:12;3.80;;;3.50;;
62258;SDS011;48241;48.824;10.102;2023-06-10T09:57:38;3.85;;;3.40;;
62258;SDS011;48241;48.824;10.102;2023-06-10T10:00:06;4.13;;;3.60;;
62258;SDS011;48241;48.824;10.102;2023-06-10T10:05:15;3.70;;;3.40;;
62258;SDS011;48241;48.824;10.102;2023-06-10T10:07:43;3.72;;;3.40;;
62258;SDS011;48241;48.824;10.102;2023-06-10T10:10:09;5.85;;;3.30;;
62258;SDS011;48241;48.824;10.102;2023-06-10T10:12:37;5.57;;;3.65;;
62258;SDS011;48241;48.824;10.102;2023-06-10T10:15:03;4.30;;;3.80;;
62258;SDS011;48241;48.824;10.102;2023-06-10T10:17:32;3.80;;;3.50;;
62258;SDS011;48241;48.824;10.102;2023-06-10T10:20:05;4.70;;;4.03;;
62258;SDS011;48241;48.824;10.102;2023-06-10T10:22:37;2.95;;;2.75;;
62258;SDS011;48241;48.824;10.102;2023-06-10T10:25:05;4.03;;;3.28;;
62258;SDS011;48241;48.824;10.102;2023-06-10T10:27:48;3.75;;;3.45;;
62258;SDS011;48241;48.824;10.102;2023-06-10T10:30:17;4.15;;;3.55;;
62258;SDS011;48241;48.824;10.102;2023-06-10T10:32:47;3.40;;;3.10;;
62258;SDS011;48241;48.824;10.102;2023-06-10T10:35:17;3.67;;;3.38;;
62258;SDS011;48241;48.824;10.102;2023-06-10T10:37:52;3.72;;;3.42;;
62258;SDS011;48241;48.824;10.102;2023-06-10T10:40:20;3.30;;;3.10;;
62258;SDS011;48241;48.824;10.102;2023-06-10T10:42:50;3.72;;;2.90;;
62258;SDS011;48241;48.824;10.102;2023-06-10T10:45:17;4.13;;;3.50;;
62258;SDS011;48241;48.824;10.102;2023-06-10T10:47:43;3.97;;;3.30;;
62258;SDS011;48241;48.824;10.102;2023-06-10T10:50:14;4.28;;;3.75;;
62258;SDS011;48241;48.824;10.102;2023-06-10T10:55:18;4.15;;;3.67;;
62258;SDS011;48241;48.824;10.102;2023-06-10T10:57:44;4.22;;;3.40;;
62258;SDS011;48241;48.824;10.102;2023-06-10T11:00:24;3.55;;;2.90;;
62258;SDS011;48241;48.824;10.102;2023-06-10T11:05:42;4.00;;;3.30;;
62258;SDS011;48241;48.824;10.102;2023-06-10T11:08:12;3.72;;;3.15;;
62258;SDS011;48241;48.824;10.102;2023-06-10T11:10:50;4.18;;;3.53;;
62258;SDS011;48241;48.824;10.102;2023-06-10T11:13:20;3.92;;;3.63;;
62258;SDS011;48241;48.824;10.102;2023-06-10T11:15:47;3.38;;;3.08;;
62258;SDS011;48241;48.824;10.102;2023-06-10T11:18:22;4.18;;;3.40;;
62258;SDS011;48241;48.824;10.102;2023-06-10T11:20:56;4.00;;;3.60;;
62258;SDS011;48241;48.824;10.102;2023-06-10T11:31:19;4.47;;;3.50;;
62258;SDS011;48241;48.824;10.102;2023-06-10T11:33:52;3.55;;;3.25;;
62258;SDS011;48241;48.824;10.102;2023-06-10T11:36:19;3.20;;;2.90;;
62258;SDS011;48241;48.824;10.102;2023-06-10T11:38:46;3.75;;;3.45;;
62258;SDS011;48241;48.824;10.102;2023-06-10T11:41:11;4.03;;;3.63;;
62258;SDS011;48241;48.824;10.102;2023-06-10T11:43:40;3.42;;;3.13;;
62258;SDS011;48241;48.824;10.102;2023-06-10T11:46:10;4.05;;;3.30;;
62258;SDS011;48241;48.824;10.102;2023-06-10T11:48:36;3.75;;;3.40;;
62258;SDS011;48241;48.824;10.102;2023-06-10T11:51:07;4.90;;;3.25;;
62258;SDS011;48241;48.824;10.102;2023-06-10T11:53:33;3.70;;;3.40;;
62258;SDS011;48241;48.824;10.102;2023-06-10T11:55:59;3.70;;;3.30;;
62258;SDS011;48241;48.824;10.102;2023-06-10T11:58:25;3.58;;;3.20;;
62258;SDS011;48241;48.824;10.102;2023-06-10T12:00:52;4.25;;;3.40;;
62258;SDS011;48241;48.824;10.102;2023-06-10T12:03:19;3.55;;;3.22;;
62258;SDS011;48241;48.824;10.102;2023-06-10T12:06:02;3.60;;;3.30;;
62258;SDS011;48241;48.824;10.102;2023-06-10T12:08:29;3.50;;;3.20;;
62258;SDS011;48241;48.824;10.102;2023-06-10T12:10:56;4.22;;;3.30;;
62258;SDS011;48241;48.824;10.102;2023-06-10T12:13:23;3.97;;;3.60;;
62258;SDS011;48241;48.824;10.102;2023-06-10T12:15:50;3.42;;;3.13;;
62258;SDS011;48241;48.824;10.102;2023-06-10T12:18:19;3.58;;;3.28;;
62258;SDS011;48241;48.824;10.102;2023-06-10T12:20:46;3.75;;;3.20;;
62258;SDS011;48241;48.824;10.102;2023-06-10T12:23:13;4.18;;;3.35;;
62258;SDS011;48241;48.824;10.102;2023-06-10T12:25:48;3.17;;;2.83;;
62258;SDS011;48241;48.824;10.102;2023-06-10T12:28:22;3.50;;;3.03;;
62258;SDS011;48241;48.824;10.102;2023-06-10T12:30:49;3.70;;;3.35;;
62258;SDS011;48241;48.824;10.102;2023-06-10T12:33:18;3.83;;;3.30;;
62258;SDS011;48241;48.824;10.102;2023-06-10T12:35:48;3.75;;;3.40;;
62258;SDS011;48241;48.824;10.102;2023-06-10T12:38:17;3.40;;;2.95;;
62258;SDS011;48241;48.824;10.102;2023-06-10T12:40:50;3.13;;;2.83;;
62258;SDS011;48241;48.824;10.102;2023-06-10T12:43:22;3.20;;;3.00;;
62258;SDS011;48241;48.824;10.102;2023-06-10T12:45:48;5.75;;;2.90;;
62258;SDS011;48241;48.824;10.102;2023-06-10T12:48:23;3.60;;;3.30;;
62258;SDS011;48241;48.824;10.102;2023-06-10T12:50:53;3.30;;;3.00;;
62258;SDS011;48241;48.824;10.102;2023-06-10T12:53:20;4.75;;;2.72;;
62258;SDS011;48241;48.824;10.102;2023-06-10T12:55:47;3.40;;;2.70;;
62258;SDS011;48241;48.824;10.102;2023-06-10T12:58:13;3.03;;;2.50;;
62258;SDS011;48241;48.824;10.102;2023-06-10T13:00:39;3.58;;;3.28;;
62258;SDS011;48241;48.824;10.102;2023-06-10T13:03:09;3.50;;;3.20;;
62258;SDS011;48241;48.824;10.102;2023-06-10T13:05:35;4.05;;;3.10;;
62258;SDS011;48241;48.824;10.102;2023-06-10T13:08:03;4.05;;;3.05;;
62258;SDS011;48241;48.824;10.102;2023-06-10T13:10:34;4.68;;;3.28;;
62258;SDS011;48241;48.824;10.102;2023-06-10T13:13:01;3.85;;;3.13;;
62258;SDS011;48241;48.824;10.102;2023-06-10T13:15:27;3.60;;;3.30;;
62258;SDS011;48241;48.824;10.102;2023-06-10T13:17:53;3.80;;;3.50;;
62258;SDS011;48241;48.824;10.102;2023-06-10T13:20:20;4.10;;;3.70;;
62258;SDS011;48241;48.824;10.102;2023-06-10T13:22:46;6.32;;;4.18;;
62258;SDS011;48241;48.824;10.102;2023-06-10T13:25:12;3.47;;;3.10;;
62258;SDS011;48241;48.824;10.102;2023-06-10T13:27:38;3.75;;;3.45;;
62258;SDS011;48241;48.824;10.102;2023-06-10T13:30:07;3.85;;;3.55;;
62258;SDS011;48241;48.824;10.102;2023-06-10T13:32:34;3.85;;;3.45;;
62258;SDS011;48241;48.824;10.102;2023-06-10T13:35:00;3.72;;;3.42;;
62258;SDS011;48241;48.824;10.102;2023-06-10T13:37:26;7.43;;;3.55;;
62258;SDS011;48241;48.824;10.102;2023-06-10T13:39:51;4.80;;;3.08;;
62258;SDS011;48241;48.824;10.102;2023-06-10T13:42:17;3.45;;;3.25;;
62258;SDS011;48241;48.824;10.102;2023-06-10T13:44:43;4.35;;;3.60;;
62258;SDS011;48241;48.824;10.102;2023-06-10T13:47:09;3.85;;;3.55;;
62258;SDS011;48241;48.824;10.102;2023-06-10T13:49:35;3.63;;;3.33;;
62258;SDS011;48241;48.824;10.102;2023-06-10T13:52:01;4.18;;;3.80;;
62258;SDS011;48241;48.824;10.102;2023-06-10T13:54:27;4.70;;;4.28;;
62258;SDS011;48241;48.824;10.102;2023-06-10T13:56:53;4.65;;;4.18;;
62258;SDS011;48241;48.824;10.102;2023-06-10T13:59:19;3.90;;;3.60;;
62258;SDS011;48241;48.824;10.102;2023-06-10T14:01:45;3.80;;;3.50;;
62258;SDS011;48241;48.824;10.102;2023-06-10T14:04:11;4.05;;;3.72;;
62258;SDS011;48241;48.824;10.102;2023-06-10T14:09:05;4.35;;;3.92;;
62258;SDS011;48241;48.824;10.102;2023-06-10T14:11:31;4.22;;;3.92;;
62258;SDS011;48241;48.824;10.102;2023-06-10T14:13:56;5.68;;;4.10;;
62258;SDS011;48241;48.824;10.102;2023-06-10T14:16:22;5.13;;;4.35;;
62258;SDS011;48241;48.824;10.102;2023-06-10T14:18:48;4.07;;;3.78;;
62258;SDS011;48241;48.824;10.102;2023-06-10T14:21:15;4.25;;;3.92;;
62258;SDS011;48241;48.824;10.102;2023-06-10T14:23:41;4.35;;;4.05;;
62258;SDS011;48241;48.824;10.102;2023-06-10T14:26:08;4.55;;;4.05;;
62258;SDS011;48241;48.824;10.102;2023-06-10T14:28:34;4.53;;;4.13;;
62258;SDS011;48241;48.824;10.102;2023-06-10T14:30:59;4.65;;;4.30;;
62258;SDS011;48241;48.824;10.102;2023-06-10T14:33:25;3.92;;;3.63;;
62258;SDS011;48241;48.824;10.102;2023-06-10T14:35:51;4.07;;;3.67;;
62258;SDS011;48241;48.824;10.102;2023-06-10T14:38:16;3.65;;;3.35;;
62258;SDS011;48241;48.824;10.102;2023-06-10T14:40:42;4.07;;;3.72;;
62258;SDS011;48241;48.824;10.102;2023-06-10T14:43:07;4.72;;;3.95;;
62258;SDS011;48241;48.824;10.102;2023-06-10T14:45:35;4.40;;;4.00;;
62258;SDS011;48241;48.824;10.102;2023-06-10T14:48:02;4.05;;;3.63;;
62258;SDS011;48241;48.824;10.102;2023-06-10T14:50:28;4.15;;;3.75;;
62258;SDS011;48241;48.824;10.102;2023-06-10T14:52:53;4.22;;;3.88;;
62258;SDS011;48241;48.824;10.102;2023-06-10T14:55:19;3.92;;;3.63;;